Time;durP1;ratioP1;P1;durP2;ratioP2;P2;SDS_P1;SDS_P2;PMS_P1;PMS_P2;Temp;Humidity;BMP_temperature;BMP_pressure;BME280_temperature;BME280_humidity;BME280_pressure;Samples;Min_cycle;Max_cycle;Signal;HPM_P1;HPM_P2
2022/10/27 07:00:54;;;;;;;5.95;3.88;;;;;;;;;;6161543;22;20017;31
2022/10/27 07:03:19;;;;;;;5.05;4.10;;;;;;;;;;6206745;23;20480;-82
2022/10/27 07:05:45;;;;;;;6.03;4.05;;;;;;;;;;6216917;23;20012;-82
2022/10/27 07:08:10;;;;;;;5.28;3.90;;;;;;;;;;6217311;23;20015;-81
2022/10/27 07:10:36;;;;;;;6.55;4.38;;;;;;;;;;6217576;23;20019;-82
2022/10/27 07:13:01;;;;;;;12.23;5.30;;;;;;;;;;6217292;23;20309;-86
2022/10/27 07:15:31;;;;;;;8.25;4.90;;;;;;;;;;6217053;23;20074;-83
2022/10/27 07:17:58;;;;;;;5.65;4.60;;;;;;;;;;6190729;23;20015;-83
2022/10/27 07:20:24;;;;;;;5.13;4.07;;;;;;;;;;6217137;23;20454;-85
2022/10/27 07:22:49;;;;;;;5.30;4.00;;;;;;;;;;6217174;23;20080;-84
2022/10/27 07:25:14;;;;;;;6.43;3.90;;;;;;;;;;6215628;23;20099;-83
2022/10/27 07:27:40;;;;;;;4.95;3.60;;;;;;;;;;6217346;23;20016;-83
2022/10/27 07:30:06;;;;;;;5.82;3.63;;;;;;;;;;6217118;23;20012;-86
2022/10/27 07:32:31;;;;;;;6.57;3.92;;;;;;;;;;6216935;23;20299;-85
2022/10/27 07:34:57;;;;;;;5.22;3.45;;;;;;;;;;6217348;23;20297;-77
2022/10/27 07:37:22;;;;;;;5.53;3.80;;;;;;;;;;6216980;23;20001;-77
2022/10/27 07:39:48;;;;;;;5.03;3.78;;;;;;;;;;6217117;23;20028;-78
2022/10/27 07:42:14;;;;;;;6.30;3.83;;;;;;;;;;6217149;23;20004;-78
2022/10/27 07:44:40;;;;;;;6.63;4.18;;;;;;;;;;6217031;23;20561;-77
2022/10/27 07:47:05;;;;;;;6.22;3.35;;;;;;;;;;6217147;23;20001;-77
2022/10/27 07:49:31;;;;;;;5.75;3.58;;;;;;;;;;6216119;23;20119;-79
2022/10/27 07:51:56;;;;;;;5.55;3.53;;;;;;;;;;6216786;23;20442;-78
2022/10/27 07:54:22;;;;;;;6.75;3.33;;;;;;;;;;6217197;23;20080;-77
2022/10/27 07:56:48;;;;;;;5.20;3.15;;;;;;;;;;6216900;23;20004;-77
2022/10/27 07:59:13;;;;;;;4.22;3.28;;;;;;;;;;6216842;23;20027;-76
2022/10/27 08:01:39;;;;;;;5.82;3.88;;;;;;;;;;6216743;23;20332;-76
2022/10/27 08:04:04;;;;;;;5.32;3.22;;;;;;;;;;6216538;23;20040;-81
2022/10/27 08:06:30;;;;;;;5.15;3.38;;;;;;;;;;6216896;23;20016;-84
2022/10/27 08:08:55;;;;;;;4.15;3.17;;;;;;;;;;6216450;23;20420;-77
2022/10/27 08:11:22;;;;;;;5.70;3.30;;;;;;;;;;6216396;23;20028;-76
2022/10/27 08:13:48;;;;;;;3.92;3.28;;;;;;;;;;6216853;23;20005;-76
2022/10/27 08:16:14;;;;;;;7.32;3.10;;;;;;;;;;6216671;23;20435;-80
2022/10/27 08:18:39;;;;;;;4.03;3.03;;;;;;;;;;6216555;23;20366;-77
2022/10/27 08:21:05;;;;;;;5.03;3.20;;;;;;;;;;6216373;23;20076;-76
2022/10/27 08:23:30;;;;;;;4.10;2.88;;;;;;;;;;6216111;23;20015;-80
2022/10/27 08:25:56;;;;;;;5.25;2.90;;;;;;;;;;6216458;23;20076;-76
2022/10/27 08:28:23;;;;;;;7.40;2.90;;;;;;;;;;6216320;23;20022;-77
2022/10/27 08:30:50;;;;;;;4.15;3.25;;;;;;;;;;6216473;23;20084;-78
2022/10/27 08:33:15;;;;;;;5.40;2.92;;;;;;;;;;6215930;23;20003;-77
2022/10/27 08:35:41;;;;;;;4.82;2.97;;;;;;;;;;6216249;23;20004;-78
2022/10/27 08:38:10;;;;;;;6.55;3.50;;;;;;;;;;6216552;23;20092;-78
2022/10/27 08:40:55;;;;;;;;;;;;;;;;;;6217400;23;20176;-77
2022/10/27 08:43:41;;;;;;;4.28;2.90;;;;;;;;;;6216295;23;19914;-77
2022/10/27 08:46:21;;;;;;;4.78;3.00;;;;;;;;;;6216253;23;20011;-76
2022/10/27 08:48:48;;;;;;;3.88;2.92;;;;;;;;;;6216188;23;20051;-78
2022/10/27 08:51:17;;;;;;;3.08;2.80;;;;;;;;;;6216189;23;20035;-78
2022/10/27 08:53:47;;;;;;;5.10;3.17;;;;;;;;;;6216306;23;20001;-76
2022/10/27 08:56:15;;;;;;;5.22;2.90;;;;;;;;;;6214561;23;20308;-78
2022/10/27 08:58:45;;;;;;;4.22;3.10;;;;;;;;;;6215836;23;20024;-77
2022/10/27 09:01:42;;;;;;;7.32;3.03;;;;;;;;;;6215725;23;20004;-78
2022/10/27 09:04:08;;;;;;;3.10;2.70;;;;;;;;;;6215866;23;20005;-82
2022/10/27 09:07:24;;;;;;;3.85;2.63;;;;;;;;;;6216203;23;20015;-82
2022/10/27 09:09:56;;;;;;;4.05;2.60;;;;;;;;;;6207053;23;20094;-76
2022/10/27 09:12:33;;;;;;;5.90;3.10;;;;;;;;;;6215375;23;20027;-77
2022/10/27 09:15:08;;;;;;;4.70;2.72;;;;;;;;;;6214203;23;20000;-80
2022/10/27 09:17:40;;;;;;;5.55;2.78;;;;;;;;;;6214635;23;20012;-77
2022/10/27 09:20:26;;;;;;;6.03;2.65;;;;;;;;;;6216459;23;20001;-77
2022/10/27 09:22:54;;;;;;;3.70;2.80;;;;;;;;;;6215984;23;20089;-77
2022/10/27 09:25:21;;;;;;;2.88;2.50;;;;;;;;;;6215957;23;20008;-77
2022/10/27 09:27:56;;;;;;;8.13;4.50;;;;;;;;;;6216402;23;20009;-79
2022/10/27 09:30:22;;;;;;;4.65;2.60;;;;;;;;;;6216337;23;20331;-82
2022/10/27 09:32:51;;;;;;;4.75;2.90;;;;;;;;;;6216200;23;20080;-79
2022/10/27 09:35:24;;;;;;;5.53;2.80;;;;;;;;;;6215625;23;20332;-78
2022/10/27 09:37:51;;;;;;;6.07;2.75;;;;;;;;;;6215976;23;20004;-78
2022/10/27 09:40:22;;;;;;;5.00;2.78;;;;;;;;;;6215954;23;20031;-77
2022/10/27 09:42:52;;;;;;;4.50;2.50;;;;;;;;;;6214452;23;20012;-79
2022/10/27 09:45:22;;;;;;;5.25;3.00;;;;;;;;;;6216152;23;20001;-76
2022/10/27 09:48:04;;;;;;;4.80;2.47;;;;;;;;;;6215953;23;20004;-76
2022/10/27 09:50:47;;;;;;;3.90;2.85;;;;;;;;;;6216074;23;20005;-78
2022/10/27 09:53:38;;;;;;;5.95;2.58;;;;;;;;;;6216928;23;20428;-77
2022/10/27 09:56:05;;;;;;;3.05;2.42;;;;;;;;;;6199270;23;20087;-78
2022/10/27 09:58:47;;;;;;;4.55;2.55;;;;;;;;;;6215693;23;20005;-78
2022/10/27 10:01:13;;;;;;;4.07;2.25;;;;;;;;;;6215877;23;20105;-77
2022/10/27 10:03:39;;;;;;;4.10;2.67;;;;;;;;;;6215680;23;20072;-79
2022/10/27 10:06:21;;;;;;;6.25;3.03;;;;;;;;;;6215745;23;20020;-80
2022/10/27 10:08:46;;;;;;;7.63;3.28;;;;;;;;;;6215481;23;20036;-80
2022/10/27 10:11:20;;;;;;;5.07;4.07;;;;;;;;;;6215602;23;20008;-81
2022/10/27 10:14:00;;;;;;;4.13;3.33;;;;;;;;;;6217527;23;20443;-80
2022/10/27 10:16:27;;;;;;;6.07;2.60;;;;;;;;;;6217604;23;20015;-80
2022/10/27 10:19:03;;;;;;;7.45;2.90;;;;;;;;;;6217903;23;20005;-81
2022/10/27 10:22:04;;;;;;;3.50;2.20;;;;;;;;;;6217580;23;20367;-80
2022/10/27 10:24:33;;;;;;;3.30;2.50;;;;;;;;;;6067697;23;20007;-81
2022/10/27 10:27:00;;;;;;;;;;;;;;;;;;6190715;23;20028;-82
2022/10/27 10:29:30;;;;;;;4.90;2.53;;;;;;;;;;6190881;23;19969;-79
2022/10/27 10:32:09;;;;;;;3.35;2.45;;;;;;;;;;6217469;23;20364;-80
2022/10/27 10:34:35;;;;;;;5.35;2.67;;;;;;;;;;6217433;23;20011;-82
2022/10/27 10:37:01;;;;;;;4.97;2.55;;;;;;;;;;6217983;23;20028;-79
2022/10/27 10:39:28;;;;;;;3.72;2.10;;;;;;;;;;6217876;23;20047;-81
2022/10/27 10:42:09;;;;;;;3.95;2.45;;;;;;;;;;6217593;23;20084;-81
2022/10/27 10:44:35;;;;;;;4.20;2.47;;;;;;;;;;6217381;23;20009;-81
2022/10/27 10:47:01;;;;;;;3.67;2.50;;;;;;;;;;6217772;23;20005;-79
2022/10/27 10:49:29;;;;;;;3.13;2.65;;;;;;;;;;6217755;23;20482;-81
2022/10/27 10:51:58;;;;;;;4.32;2.83;;;;;;;;;;6216186;23;20019;-79
2022/10/27 10:54:27;;;;;;;3.42;2.45;;;;;;;;;;6217136;23;20000;-79
2022/10/27 10:56:54;;;;;;;2.95;2.40;;;;;;;;;;6217089;23;20079;-79
2022/10/27 10:59:25;;;;;;;4.93;2.72;;;;;;;;;;6217599;23;20107;-81
2022/10/27 11:01:59;;;;;;;3.50;2.42;;;;;;;;;;6217109;23;20375;-77
2022/10/27 11:04:29;;;;;;;2.35;2.15;;;;;;;;;;6216871;23;20062;-78
2022/10/27 11:07:17;;;;;;;3.03;2.58;;;;;;;;;;6217362;23;20096;-78
2022/10/27 11:09:58;;;;;;;4.83;2.80;;;;;;;;;;6217095;23;20005;-78
2022/10/27 11:12:35;;;;;;;2.75;2.35;;;;;;;;;;6193053;23;20272;-77
2022/10/27 11:15:13;;;;;;;4.40;2.13;;;;;;;;;;6217357;23;20007;-79
2022/10/27 11:17:41;;;;;;;4.53;2.60;;;;;;;;;;6217364;23;20009;-79
2022/10/27 11:20:19;;;;;;;3.08;2.50;;;;;;;;;;6217188;23;20003;-77
2022/10/27 11:22:47;;;;;;;3.95;2.70;;;;;;;;;;6190155;23;20365;-78
2022/10/27 11:25:21;;;;;;;3.53;2.42;;;;;;;;;;6217612;23;20032;-77
2022/10/27 11:28:09;;;;;;;3.42;2.58;;;;;;;;;;6217230;23;20000;-82
2022/10/27 11:30:42;;;;;;;3.72;2.60;;;;;;;;;;6217056;23;20031;-77
2022/10/27 11:33:41;;;;;;;2.95;2.38;;;;;;;;;;6217021;23;20313;-80
2022/10/27 11:36:06;;;;;;;;;;;;;;;;;;6217360;23;20032;-79
2022/10/27 11:38:49;;;;;;;2.90;2.40;;;;;;;;;;6217220;23;19938;-79
2022/10/27 11:41:32;;;;;;;5.22;2.40;;;;;;;;;;6217067;23;20079;-79
2022/10/27 11:44:36;;;;;;;3.42;2.20;;;;;;;;;;6216841;23;20004;-78
2022/10/27 11:47:27;;;;;;;5.85;2.20;;;;;;;;;;6216567;23;20009;-78
2022/10/27 11:50:04;;;;;;;3.22;2.22;;;;;;;;;;6216770;23;20009;-79
2022/10/27 11:52:45;;;;;;;2.72;2.08;;;;;;;;;;6216881;23;20005;-79
2022/10/27 11:55:24;;;;;;;2.30;2.03;;;;;;;;;;6216768;23;20009;-80
2022/10/27 11:57:55;;;;;;;;;;;;;;;;;;6217169;23;20005;-81
2022/10/27 12:00:23;;;;;;;2.30;2.10;;;;;;;;;;6216876;23;19919;-80
2022/10/27 12:03:05;;;;;;;3.40;2.37;;;;;;;;;;6216409;23;20456;-80
2022/10/27 12:05:46;;;;;;;3.72;3.33;;;;;;;;;;6217229;23;20340;-80
2022/10/27 12:08:41;;;;;;;4.28;2.67;;;;;;;;;;6217036;23;20005;-80
2022/10/27 12:11:36;;;;;;;3.72;2.67;;;;;;;;;;6217084;23;20005;-80
2022/10/27 12:14:11;;;;;;;4.40;2.38;;;;;;;;;;6216435;23;20004;-80
2022/10/27 12:16:54;;;;;;;3.13;2.17;;;;;;;;;;6216732;23;20004;-80
2022/10/27 12:19:27;;;;;;;3.95;2.40;;;;;;;;;;6216891;23;20008;-80
2022/10/27 12:21:52;;;;;;;3.53;1.65;;;;;;;;;;6216583;23;20054;-81
2022/10/27 12:24:26;;;;;;;3.80;2.10;;;;;;;;;;6216763;23;20005;-80
2022/10/27 12:26:56;;;;;;;3.55;2.00;;;;;;;;;;6216644;23;20008;-80
2022/10/27 12:29:26;;;;;;;3.15;2.00;;;;;;;;;;6216574;23;20079;-80
2022/10/27 12:31:59;;;;;;;3.65;2.30;;;;;;;;;;6216514;23;20004;-80
2022/10/27 12:34:41;;;;;;;3.88;1.95;;;;;;;;;;6216869;23;20290;-80
2022/10/27 12:37:28;;;;;;;3.78;1.83;;;;;;;;;;6216177;23;20009;-80
2022/10/27 12:40:11;;;;;;;2.15;1.75;;;;;;;;;;6216634;23;20067;-80
2022/10/27 12:42:43;;;;;;;3.67;2.15;;;;;;;;;;6216651;23;20313;-80
2022/10/27 12:45:24;;;;;;;3.13;2.58;;;;;;;;;;6216724;23;20012;-80
2022/10/27 12:47:52;;;;;;;4.88;1.98;;;;;;;;;;6216473;23;20077;-80
2022/10/27 12:50:36;;;;;;;3.90;2.40;;;;;;;;;;6216284;23;20377;-80
2022/10/27 12:53:22;;;;;;;2.53;2.00;;;;;;;;;;6216341;23;20008;-80
2022/10/27 12:55:57;;;;;;;3.00;2.50;;;;;;;;;;6216333;23;20065;-80
2022/10/27 12:58:26;;;;;;;2.33;2.13;;;;;;;;;;6216014;23;20007;-80
2022/10/27 13:01:05;;;;;;;4.57;2.00;;;;;;;;;;6216126;23;20000;-79
2022/10/27 13:03:33;;;;;;;3.05;2.20;;;;;;;;;;6186395;23;20021;-79
2022/10/27 13:06:26;;;;;;;6.32;2.20;;;;;;;;;;6186047;23;20420;-80
2022/10/27 13:09:02;;;;;;;6.75;2.20;;;;;;;;;;6186160;23;20005;-80
2022/10/27 13:11:47;;;;;;;2.55;2.08;;;;;;;;;;6186210;23;20001;-80
2022/10/27 13:14:46;;;;;;;4.47;1.90;;;;;;;;;;6186031;23;20059;-79
2022/10/27 13:17:39;;;;;;;4.88;2.13;;;;;;;;;;6185714;23;20034;-80
2022/10/27 13:20:09;;;;;;;3.63;2.25;;;;;;;;;;6159518;23;20011;-79
2022/10/27 13:22:44;;;;;;;3.42;1.90;;;;;;;;;;6185762;23;20032;-79
2022/10/27 13:25:10;;;;;;;5.32;2.05;;;;;;;;;;6185423;23;20038;-79
2022/10/27 13:27:41;;;;;;;2.67;1.80;;;;;;;;;;6186256;23;20005;-79
2022/10/27 13:30:22;;;;;;;2.85;2.00;;;;;;;;;;6185740;23;20012;-79
2022/10/27 13:32:47;;;;;;;2.30;1.80;;;;;;;;;;6185971;23;20088;-78
2022/10/27 13:35:12;;;;;;;2.97;2.13;;;;;;;;;;6185582;23;20040;-79
2022/10/27 13:37:58;;;;;;;3.85;1.77;;;;;;;;;;6185839;23;20036;-80
2022/10/27 13:40:28;;;;;;;4.75;1.98;;;;;;;;;;6185951;23;20008;-81
2022/10/27 13:43:22;;;;;;;3.45;2.17;;;;;;;;;;6185540;23;20045;-79
2022/10/27 13:45:49;;;;;;;4.63;2.20;;;;;;;;;;6185769;23;20061;-79
2022/10/27 13:48:15;;;;;;;5.78;2.30;;;;;;;;;;6185371;23;20005;-79
2022/10/27 13:50:44;;;;;;;6.97;2.08;;;;;;;;;;6185747;23;20401;-79
2022/10/27 13:53:15;;;;;;;2.55;1.70;;;;;;;;;;6185548;23;20088;-80
2022/10/27 13:55:55;;;;;;;4.97;1.90;;;;;;;;;;6159407;23;20432;-80
2022/10/27 13:58:20;;;;;;;6.03;2.00;;;;;;;;;;6185803;23;20495;-79
2022/10/27 14:01:04;;;;;;;5.22;2.03;;;;;;;;;;6185703;23;19997;-79
2022/10/27 14:04:16;;;;;;;5.63;2.25;;;;;;;;;;6215713;23;20017;-80
2022/10/27 14:06:43;;;;;;;3.55;2.10;;;;;;;;;;6065889;23;20015;-80
2022/10/27 14:09:37;;;;;;;5.38;2.70;;;;;;;;;;6065983;23;20541;-79
2022/10/27 14:12:14;;;;;;;2.88;2.40;;;;;;;;;;6174915;23;20432;-80
2022/10/27 14:14:40;;;;;;;3.95;2.50;;;;;;;;;;6215756;23;19996;-80
2022/10/27 14:17:14;;;;;;;2.65;1.77;;;;;;;;;;6215501;23;20009;-79
2022/10/27 14:19:44;;;;;;;3.20;1.90;;;;;;;;;;6216016;23;20001;-79
2022/10/27 14:22:20;;;;;;;;;;;;;;;;;;6189622;23;20005;-80
2022/10/27 14:24:51;;;;;;;4.40;2.20;;;;;;;;;;6215384;23;19908;-79
2022/10/27 14:27:18;;;;;;;4.68;2.38;;;;;;;;;;6214730;23;20004;-80
2022/10/27 14:29:45;;;;;;;5.15;2.33;;;;;;;;;;6215436;23;20005;-79
2022/10/27 14:32:25;;;;;;;2.67;1.98;;;;;;;;;;6215460;23;20008;-79
2022/10/27 14:34:50;;;;;;;2.15;1.95;;;;;;;;;;6215417;23;20055;-79
2022/10/27 14:37:28;;;;;;;4.85;2.20;;;;;;;;;;6215603;23;20013;-80
2022/10/27 14:39:55;;;;;;;4.25;2.00;;;;;;;;;;6215718;23;20011;-79
2022/10/27 14:42:25;;;;;;;4.45;2.08;;;;;;;;;;6215553;23;20554;-80
2022/10/27 14:45:04;;;;;;;2.20;2.00;;;;;;;;;;6215564;23;20116;-79
2022/10/27 14:47:31;;;;;;;2.55;2.05;;;;;;;;;;6215495;23;20000;-79
2022/10/27 14:50:01;;;;;;;2.15;1.95;;;;;;;;;;6215822;23;20004;-80
2022/10/27 14:52:38;;;;;;;3.95;2.15;;;;;;;;;;6215569;23;20007;-79
2022/10/27 14:55:04;;;;;;;3.70;2.10;;;;;;;;;;6215310;23;20001;-79
2022/10/27 14:57:34;;;;;;;4.25;2.25;;;;;;;;;;6188810;23;20005;-79
2022/10/27 15:00:03;;;;;;;2.47;1.90;;;;;;;;;;6190276;23;20005;-79
2022/10/27 15:02:28;;;;;;;5.63;2.10;;;;;;;;;;6190532;23;20024;-80
2022/10/27 15:05:19;;;;;;;4.15;2.03;;;;;;;;;;6216989;23;20324;-80
2022/10/27 15:07:45;;;;;;;4.55;2.08;;;;;;;;;;6217124;23;20008;-80
2022/10/27 15:10:17;;;;;;;4.90;2.47;;;;;;;;;;6217097;23;20000;-80
2022/10/27 15:12:48;;;;;;;2.88;2.10;;;;;;;;;;6217304;23;20007;-80
2022/10/27 15:15:14;;;;;;;3.45;2.00;;;;;;;;;;6216723;23;20032;-80
2022/10/27 15:17:40;;;;;;;4.78;2.80;;;;;;;;;;6216722;23;20008;-80
2022/10/27 15:20:13;;;;;;;4.35;2.10;;;;;;;;;;6216727;23;20365;-80
2022/10/27 15:22:39;;;;;;;6.35;2.35;;;;;;;;;;6217149;23;20416;-80
2022/10/27 15:25:11;;;;;;;6.05;1.88;;;;;;;;;;6216645;23;20035;-79
2022/10/27 15:27:37;;;;;;;5.00;2.15;;;;;;;;;;6216998;23;20024;-80
2022/10/27 15:30:05;;;;;;;2.53;1.90;;;;;;;;;;6216871;23;20000;-80
2022/10/27 15:32:37;;;;;;;3.03;1.67;;;;;;;;;;6215061;23;20080;-80
2022/10/27 15:35:30;;;;;;;3.35;1.92;;;;;;;;;;6217099;23;20011;-80
2022/10/27 15:37:57;;;;;;;3.00;1.95;;;;;;;;;;6217450;23;20054;-80
2022/10/27 15:40:32;;;;;;;2.55;2.03;;;;;;;;;;6217302;23;20020;-80
2022/10/27 15:42:59;;;;;;;3.90;2.08;;;;;;;;;;6217057;23;20005;-80
2022/10/27 15:45:43;;;;;;;3.75;1.83;;;;;;;;;;6217343;23;20005;-80
2022/10/27 15:48:32;;;;;;;4.25;2.17;;;;;;;;;;6217160;23;20079;-80
2022/10/27 15:51:13;;;;;;;;;;;;;;;;;;6190619;23;20305;-80
2022/10/27 15:53:58;;;;;;;2.25;2.00;;;;;;;;;;6216827;23;19914;-80
2022/10/27 15:56:36;;;;;;;2.55;2.05;;;;;;;;;;6215819;23;20016;-80
2022/10/27 15:59:14;;;;;;;4.15;2.10;;;;;;;;;;6216605;23;20005;-80
2022/10/27 16:01:41;;;;;;;2.28;2.08;;;;;;;;;;6216762;23;20071;-80
2022/10/27 16:04:21;;;;;;;4.18;2.20;;;;;;;;;;6216989;23;20385;-80
2022/10/27 16:06:47;;;;;;;3.13;2.00;;;;;;;;;;6216820;23;20008;-80
2022/10/27 16:09:38;;;;;;;3.03;2.30;;;;;;;;;;6216574;23;20028;-80
2022/10/27 16:12:10;;;;;;;3.03;2.72;;;;;;;;;;6215522;23;20000;-80
2022/10/27 16:14:35;;;;;;;3.78;2.25;;;;;;;;;;6215929;23;20004;-81
2022/10/27 16:17:01;;;;;;;6.20;2.40;;;;;;;;;;6215906;23;20442;-80
2022/10/27 16:19:26;;;;;;;3.05;1.92;;;;;;;;;;6216419;23;20005;-80
2022/10/27 16:21:51;;;;;;;2.65;1.58;;;;;;;;;;6189286;23;20000;-79
2022/10/27 16:24:18;;;;;;;2.28;1.73;;;;;;;;;;6216089;23;20008;-80
2022/10/27 16:26:46;;;;;;;4.57;2.45;;;;;;;;;;6215891;23;20008;-80
2022/10/27 16:29:16;;;;;;;3.97;2.70;;;;;;;;;;6216722;23;20011;-80
2022/10/27 16:31:44;;;;;;;4.22;2.03;;;;;;;;;;6216413;23;20005;-80
2022/10/27 16:34:27;;;;;;;1.92;1.83;;;;;;;;;;6216243;23;20005;-80
2022/10/27 16:36:52;;;;;;;2.28;1.90;;;;;;;;;;6215862;23;20042;-80
2022/10/27 16:39:18;;;;;;;3.42;1.70;;;;;;;;;;6216150;23;20000;-85
2022/10/27 16:41:44;;;;;;;5.70;2.30;;;;;;;;;;6215615;23;20000;-79
2022/10/27 16:44:11;;;;;;;4.00;2.05;;;;;;;;;;6215812;23;20428;-78
2022/10/27 16:46:37;;;;;;;7.57;2.40;;;;;;;;;;6215755;23;20420;-77
2022/10/27 16:49:02;;;;;;;3.80;2.40;;;;;;;;;;6215738;23;20043;-83
2022/10/27 16:51:28;;;;;;;2.35;2.15;;;;;;;;;;6216245;23;20301;-83
2022/10/27 16:53:53;;;;;;;3.15;2.00;;;;;;;;;;6215636;23;20147;-80
2022/10/27 16:56:18;;;;;;;5.18;2.40;;;;;;;;;;6215599;23;20495;-81
2022/10/27 16:58:44;;;;;;;4.25;2.75;;;;;;;;;;6189073;23;20009;-81
2022/10/27 17:01:19;;;;;;;4.40;1.98;;;;;;;;;;6215230;23;20008;-79
2022/10/27 17:03:45;;;;;;;4.90;2.20;;;;;;;;;;6215655;23;20068;-81
2022/10/27 17:06:12;;;;;;;4.00;2.40;;;;;;;;;;6213927;23;20001;-79
2022/10/27 17:08:39;;;;;;;2.88;1.92;;;;;;;;;;6215756;23;20020;-81
2022/10/27 17:11:06;;;;;;;3.70;2.78;;;;;;;;;;6215255;23;20001;-82
2022/10/27 17:13:31;;;;;;;5.03;3.40;;;;;;;;;;6215565;23;20012;-84
2022/10/27 17:16:11;;;;;;;5.18;2.55;;;;;;;;;;6215642;23;20009;-82
2022/10/27 17:18:37;;;;;;;4.80;2.97;;;;;;;;;;6215714;23;20011;-82
2022/10/27 17:21:02;;;;;;;5.57;2.90;;;;;;;;;;6215557;23;20000;-84
2022/10/27 17:23:29;;;;;;;5.25;2.70;;;;;;;;;;6215954;23;20011;-83
2022/10/27 17:26:05;;;;;;;5.00;3.03;;;;;;;;;;6215808;23;20016;-81
2022/10/27 17:28:30;;;;;;;6.55;2.88;;;;;;;;;;6215718;23;20399;-80
2022/10/27 17:31:02;;;;;;;5.13;2.85;;;;;;;;;;6216171;23;20001;-81
2022/10/27 17:33:27;;;;;;;4.57;2.50;;;;;;;;;;6215640;23;20502;-82
2022/10/27 17:35:58;;;;;;;5.72;2.47;;;;;;;;;;6216162;23;20004;-82
2022/10/27 17:38:23;;;;;;;10.13;2.15;;;;;;;;;;6215892;23;20000;-80
2022/10/27 17:40:59;;;;;;;5.50;2.45;;;;;;;;;;6215404;23;20007;-81
2022/10/27 17:43:25;;;;;;;3.03;1.75;;;;;;;;;;6215419;23;20035;-80
2022/10/27 17:45:56;;;;;;;4.32;2.10;;;;;;;;;;6215315;23;20004;-80
2022/10/27 17:48:22;;;;;;;4.85;2.00;;;;;;;;;;6215497;23;20001;-78
2022/10/27 17:50:47;;;;;;;5.97;2.17;;;;;;;;;;6215553;23;20459;-78
2022/10/27 17:53:13;;;;;;;5.63;2.33;;;;;;;;;;6215439;23;20079;-81
2022/10/27 17:55:38;;;;;;;2.60;2.22;;;;;;;;;;6215487;23;20011;-80
2022/10/27 17:58:04;;;;;;;2.47;2.08;;;;;;;;;;6215693;23;20027;-79
2022/10/27 18:00:29;;;;;;;3.65;2.58;;;;;;;;;;6215617;23;20083;-79
2022/10/27 18:02:55;;;;;;;2.95;2.75;;;;;;;;;;6215521;23;20008;-79
2022/10/27 18:05:20;;;;;;;7.20;2.28;;;;;;;;;;6215531;23;20005;-80
2022/10/27 18:07:45;;;;;;;7.45;3.88;;;;;;;;;;6215930;23;20300;-81
2022/10/27 18:10:11;;;;;;;4.65;2.83;;;;;;;;;;6215702;23;20028;-80
2022/10/27 18:12:36;;;;;;;3.97;2.33;;;;;;;;;;6215619;23;20078;-80
2022/10/27 18:15:02;;;;;;;3.13;2.10;;;;;;;;;;6215497;23;20374;-79
2022/10/27 18:17:27;;;;;;;4.63;2.70;;;;;;;;;;6215658;23;20039;-80
2022/10/27 18:19:52;;;;;;;3.22;2.20;;;;;;;;;;6188760;23;20013;-79
2022/10/27 18:22:18;;;;;;;3.83;2.22;;;;;;;;;;6215634;23;20005;-79
2022/10/27 18:24:43;;;;;;;7.00;2.47;;;;;;;;;;6215574;23;20001;-81
2022/10/27 18:27:09;;;;;;;4.72;2.25;;;;;;;;;;6215852;23;20070;-78
2022/10/27 18:29:34;;;;;;;4.38;2.40;;;;;;;;;;6215214;23;20005;-78
2022/10/27 18:32:01;;;;;;;3.58;2.53;;;;;;;;;;6215812;23;20070;-80
2022/10/27 18:34:27;;;;;;;5.38;2.53;;;;;;;;;;6216777;23;20424;-81
2022/10/27 18:36:52;;;;;;;7.75;3.15;;;;;;;;;;6217717;23;20131;-80
2022/10/27 18:39:18;;;;;;;6.35;2.92;;;;;;;;;;6190723;23;20008;-80
2022/10/27 18:41:44;;;;;;;3.55;2.65;;;;;;;;;;6217401;23;20001;-80
2022/10/27 18:44:10;;;;;;;3.55;2.50;;;;;;;;;;6217470;23;20338;-80
2022/10/27 18:46:35;;;;;;;4.20;2.92;;;;;;;;;;6217490;23;20012;-80
2022/10/27 18:49:02;;;;;;;4.60;2.95;;;;;;;;;;6217144;23;20009;-80
2022/10/27 18:51:30;;;;;;;6.43;3.75;;;;;;;;;;6217390;23;20290;-80
2022/10/27 18:53:57;;;;;;;6.15;2.60;;;;;;;;;;6217335;23;20359;-79
2022/10/27 18:56:24;;;;;;;3.83;2.15;;;;;;;;;;6217215;23;20004;-82
2022/10/27 18:59:00;;;;;;;4.07;2.70;;;;;;;;;;6215539;23;20039;-79
2022/10/27 19:01:27;;;;;;;5.93;2.53;;;;;;;;;;6217214;23;20019;-81
2022/10/27 19:03:56;;;;;;;3.25;2.72;;;;;;;;;;6190705;23;20119;-81
2022/10/27 19:06:23;;;;;;;4.90;2.80;;;;;;;;;;6217604;23;20079;-82
2022/10/27 19:08:49;;;;;;;5.00;2.70;;;;;;;;;;6217186;23;20008;-81
2022/10/27 19:11:16;;;;;;;4.05;3.08;;;;;;;;;;6217055;23;20004;-80
2022/10/27 19:13:44;;;;;;;6.85;3.42;;;;;;;;;;6217249;23;20015;-80
2022/10/27 19:16:12;;;;;;;6.22;2.80;;;;;;;;;;6217006;23;20015;-80
2022/10/27 19:18:37;;;;;;;9.00;4.10;;;;;;;;;;6217132;23;20008;-80
2022/10/27 19:21:05;;;;;;;4.78;4.28;;;;;;;;;;6217221;23;20000;-80
2022/10/27 19:23:31;;;;;;;4.25;3.42;;;;;;;;;;6216892;23;20005;-80
2022/10/27 19:26:12;;;;;;;3.97;2.47;;;;;;;;;;6216812;23;20007;-80
2022/10/27 19:28:39;;;;;;;3.80;2.72;;;;;;;;;;6216421;23;20000;-81
2022/10/27 19:31:05;;;;;;;3.17;2.08;;;;;;;;;;6217059;23;19997;-80
2022/10/27 19:33:31;;;;;;;4.07;2.42;;;;;;;;;;6217181;23;20055;-80
2022/10/27 19:36:17;;;;;;;5.07;2.78;;;;;;;;;;6216930;23;20364;-80
2022/10/27 19:38:43;;;;;;;7.70;3.70;;;;;;;;;;6216921;23;20059;-81
2022/10/27 19:41:12;;;;;;;4.93;3.53;;;;;;;;;;6216722;23;20389;-80
2022/10/27 19:43:38;;;;;;;4.97;2.85;;;;;;;;;;6217194;23;20003;-80
2022/10/27 19:46:05;;;;;;;5.97;3.10;;;;;;;;;;6190094;23;20296;-80
2022/10/27 19:48:31;;;;;;;4.55;3.05;;;;;;;;;;6216833;23;20074;-78
2022/10/27 19:50:56;;;;;;;5.38;3.00;;;;;;;;;;6217013;23;20324;-80
2022/10/27 19:53:22;;;;;;;4.43;3.03;;;;;;;;;;6216600;23;20412;-79
2022/10/27 19:55:47;;;;;;;5.85;3.63;;;;;;;;;;6216914;23;20494;-79
2022/10/27 19:58:13;;;;;;;4.10;3.70;;;;;;;;;;6217066;23;20008;-79
2022/10/27 20:00:39;;;;;;;5.97;3.60;;;;;;;;;;6216940;23;20420;-79
2022/10/27 20:03:04;;;;;;;5.68;3.95;;;;;;;;;;6216121;23;20043;-79
2022/10/27 20:05:30;;;;;;;6.50;4.10;;;;;;;;;;6216571;23;20059;-79
2022/10/27 20:07:55;;;;;;;5.57;3.40;;;;;;;;;;6216452;23;20005;-79
2022/10/27 20:10:21;;;;;;;8.38;3.55;;;;;;;;;;6216933;23;20412;-79
2022/10/27 20:12:46;;;;;;;5.55;3.55;;;;;;;;;;6216655;23;20039;-78
2022/10/27 20:15:12;;;;;;;5.60;2.90;;;;;;;;;;6216799;23;20000;-78
2022/10/27 20:17:38;;;;;;;7.80;3.30;;;;;;;;;;6216608;23;20075;-78
2022/10/27 20:20:04;;;;;;;3.45;3.10;;;;;;;;;;6216414;23;20000;-78
2022/10/27 20:22:30;;;;;;;3.63;2.83;;;;;;;;;;6216313;23;20000;-79
2022/10/27 20:24:55;;;;;;;3.17;2.88;;;;;;;;;;6216798;23;20054;-78
2022/10/27 20:27:21;;;;;;;5.97;3.25;;;;;;;;;;6216594;23;20038;-79
2022/10/27 20:29:46;;;;;;;5.07;3.40;;;;;;;;;;6216164;23;20048;-78
2022/10/27 20:32:12;;;;;;;4.38;3.50;;;;;;;;;;6216487;23;20093;-78
2022/10/27 20:34:37;;;;;;;6.18;3.40;;;;;;;;;;6216339;23;20080;-78
2022/10/27 20:37:02;;;;;;;5.22;3.50;;;;;;;;;;6216571;23;20405;-78
2022/10/27 20:39:28;;;;;;;4.00;3.40;;;;;;;;;;6216285;23;20001;-78
2022/10/27 20:41:53;;;;;;;7.25;3.50;;;;;;;;;;6216542;23;20000;-78
2022/10/27 20:44:19;;;;;;;5.75;3.50;;;;;;;;;;6216315;23;20055;-79
2022/10/27 20:46:45;;;;;;;7.45;3.50;;;;;;;;;;6216344;23;20008;-79
2022/10/27 20:49:11;;;;;;;6.13;3.40;;;;;;;;;;6189366;23;20328;-78
2022/10/27 20:51:36;;;;;;;5.65;2.90;;;;;;;;;;6216324;23;20079;-78
2022/10/27 20:54:02;;;;;;;4.90;2.80;;;;;;;;;;6189604;23;20424;-78
2022/10/27 20:56:29;;;;;;;4.00;3.25;;;;;;;;;;6215695;23;20008;-79
2022/10/27 20:58:55;;;;;;;5.00;3.50;;;;;;;;;;6216352;23;20424;-79
2022/10/27 21:01:27;;;;;;;7.05;3.15;;;;;;;;;;6216056;23;20018;-79
2022/10/27 21:03:55;;;;;;;6.00;2.88;;;;;;;;;;6215893;23;20039;-79
2022/10/27 21:06:20;;;;;;;6.22;2.97;;;;;;;;;;6215752;23;20487;-79
2022/10/27 21:08:46;;;;;;;4.05;3.00;;;;;;;;;;6216472;23;20081;-78
2022/10/27 21:11:11;;;;;;;3.45;3.13;;;;;;;;;;6216232;23;20015;-79
2022/10/27 21:13:37;;;;;;;7.65;2.78;;;;;;;;;;6216392;23;20055;-79
2022/10/27 21:16:02;;;;;;;3.53;2.72;;;;;;;;;;6215929;23;20055;-78
2022/10/27 21:18:28;;;;;;;4.55;2.80;;;;;;;;;;6216044;23;20004;-79
2022/10/27 21:20:53;;;;;;;4.15;2.72;;;;;;;;;;6216253;23;20004;-78
2022/10/27 21:23:19;;;;;;;3.70;2.60;;;;;;;;;;6216033;23;20001;-79
2022/10/27 21:25:44;;;;;;;4.22;2.85;;;;;;;;;;6216289;23;20035;-78
2022/10/27 21:28:10;;;;;;;8.88;3.45;;;;;;;;;;6216274;23;20007;-79
2022/10/27 21:30:36;;;;;;;4.63;3.85;;;;;;;;;;6216130;23;20360;-79
2022/10/27 21:33:01;;;;;;;5.03;2.80;;;;;;;;;;6215806;23;20055;-79
2022/10/27 21:35:27;;;;;;;3.30;2.95;;;;;;;;;;6216193;23;20004;-79
2022/10/27 21:37:56;;;;;;;6.82;3.42;;;;;;;;;;6216241;23;20000;-78
2022/10/27 21:40:22;;;;;;;3.92;3.20;;;;;;;;;;6216091;23;20324;-79
2022/10/27 21:42:47;;;;;;;6.20;3.55;;;;;;;;;;6215949;23;20005;-78
2022/10/27 21:45:13;;;;;;;4.68;3.63;;;;;;;;;;6216099;23;20008;-79
2022/10/27 21:47:40;;;;;;;6.45;3.00;;;;;;;;;;6215972;23;20001;-78
2022/10/27 21:50:09;;;;;;;5.15;3.67;;;;;;;;;;6215882;23;20000;-79
2022/10/27 21:52:35;;;;;;;3.80;3.35;;;;;;;;;;6215993;23;19993;-79
2022/10/27 21:55:00;;;;;;;3.42;3.08;;;;;;;;;;6216075;23;20076;-78
2022/10/27 21:57:27;;;;;;;4.70;3.25;;;;;;;;;;6216056;23;20086;-79
2022/10/27 21:59:53;;;;;;;3.88;3.25;;;;;;;;;;6215763;23;20103;-78
2022/10/27 22:02:18;;;;;;;6.07;3.95;;;;;;;;;;6215756;23;20013;-79
2022/10/27 22:04:43;;;;;;;4.75;3.05;;;;;;;;;;6215841;23;20035;-80
2022/10/27 22:07:09;;;;;;;3.53;3.05;;;;;;;;;;6216096;23;20005;-79